• Join FlightAware (Why Join?)
  • Login
  • US Flag 
11:19PM EDT


 

Airport Tracker/Info


-or-


 

Live Flight TrackerFlight Track Log ✈ AAL1071 ✈ 28-Jul-2013 ✈ KPHL - KMIA

Flight Track Log - Related Links

Times and Time Zones

All times are in EDT time to prevent confusion due to time zone crossing. See the AAL1071 flight status page for this flight to view local times or setup timezone preferences in your user account.

Time Position Orientation Groundspeed Altitude Reporting Facility
EDT Latitude Longitude Course Direction KTS MPH feet Rate Location/Type
06:06AM 39.8771 -75.2127 78° East 177 204 800  Level FlightAware ADS-B
06:06AM 39.8777 -75.2073 82° East 183 211 900 720 Climbing FlightAware ADS-B
06:06AM 39.8778 -75.2039 88° East 186 214 900 840 Level FlightAware ADS-B
06:06AM 39.8778 -75.1992 90° East 192 221 1,000 1,980 Climbing FlightAware ADS-B
06:06AM 39.8774 -75.1890 93° East 202 232 1,300 1,980 Climbing FlightAware ADS-B
06:06AM 39.8768 -75.1727 93° East 211 243 1,700 1,320 Climbing FlightAware ADS-B
06:07AM 39.8759 -75.1537 94° East 231 266 1,900 960 Climbing FlightAware ADS-B
06:07AM 39.8751 -75.1397 94° East 247 284 2,100 1,560 Climbing FlightAware ADS-B
06:07AM 39.8742 -75.1326 99° East 251 289 2,300 2,160 Climbing FlightAware ADS-B
06:07AM 39.8725 -75.1233 103° East 252 290 2,500 2,400 Climbing FlightAware ADS-B
06:07AM 39.8708 -75.1169 109° East 251 289 2,700 3,000 Climbing FlightAware ADS-B
06:07AM 39.8687 -75.1113 116° Southeast 250 288 2,900 3,000 Climbing FlightAware ADS-B
06:07AM 39.8668 -75.1070 120° Southeast 251 289 3,100 2,220 Climbing FlightAware ADS-B
06:07AM 39.8641 -75.1021 126° Southeast 250 288 3,200 2,220 Climbing FlightAware ADS-B
06:07AM 39.8609 -75.0973 131° Southeast 250 288 3,400 3,000 Climbing FlightAware ADS-B
06:07AM 39.8574 -75.0933 139° Southeast 251 289 3,600 2,220 Climbing FlightAware ADS-B
06:07AM 39.8535 -75.0896 144° Southeast 250 288 3,700 2,220 Climbing FlightAware ADS-B
06:08AM 39.8490 -75.0864 151° Southeast 251 289 3,900 2,220 Climbing FlightAware ADS-B
06:08AM 39.8458 -75.0845 155° Southeast 252 290 4,000 2,520 Climbing FlightAware ADS-B
06:08AM 39.8422 -75.0829 161° South 252 290 4,200 3,960 Climbing FlightAware ADS-B
06:08AM 39.8389 -75.0817 164° South 250 288 4,400 3,000 Climbing FlightAware ADS-B
06:08AM 39.8355 -75.0809 170° South 249 287 4,500 3,420 Climbing FlightAware ADS-B
06:08AM 39.8305 -75.0803 175° South 247 284 4,800 3,720 Climbing FlightAware ADS-B
06:08AM 39.8265 -75.0803 180° South 246 283 5,000 2,640 Climbing FlightAware ADS-B
06:08AM 39.8208 -75.0811 186° South 246 283 5,200 3,000 Climbing FlightAware ADS-B
06:08AM 39.8167 -75.0821 191° South 248 285 5,400 3,000 Climbing FlightAware ADS-B
06:08AM 39.8134 -75.0832 194° South 248 285 5,500 2,520 Climbing FlightAware ADS-B
06:08AM 39.8091 -75.0850 198° South 249 287 5,700 2,400 Climbing FlightAware ADS-B
06:08AM 39.8026 -75.0884 202° Southwest 252 290 5,900 2,280 Climbing FlightAware ADS-B
06:08AM 39.7954 -75.0929 206° Southwest 253 291 6,200 2,820 Climbing FlightAware ADS-B
06:09AM 39.7787 -75.1045 208° Southwest 255 293 7,000 3,120 Climbing FlightAware ADS-B
06:09AM 39.7736 -75.1084 210° Southwest 257 296 7,300 3,000 Climbing FlightAware ADS-B
06:09AM 39.7665 -75.1142 212° Southwest 258 297 7,600 2,580 Climbing FlightAware ADS-B
06:09AM 39.7510 -75.1273 213° Southwest 261 300 8,300 2,700 Climbing FlightAware ADS-B
06:09AM 39.7359 -75.1405 214° Southwest 265 305 9,000 2,820 Climbing FlightAware ADS-B
06:09AM 39.7272 -75.1488 216° Southwest 267 307 9,400 2,700 Climbing FlightAware ADS-B
06:10AM 39.7139 -75.1621 218° Southwest 269 310 10,000 2,580 Climbing FlightAware ADS-B
06:10AM 39.7041 -75.1710 215° Southwest 272 313 10,400 2,100 Climbing FlightAware ADS-B
06:10AM 39.6697 -75.1974 211° Southwest 293 337 11,400 2,220 Climbing FlightAware ADS-B
06:11AM 39.6343 -75.2266 212° Southwest 303 349 12,700 2,220 Climbing FlightAware ADS-B
06:11AM 39.5967 -75.2568 212° Southwest 324 373 13,700 2,220 Climbing FlightAware ADS-B
06:12AM 39.5574 -75.2871 211° Southwest 326 375 15,000 2,460 Climbing FlightAware ADS-B
06:12AM 39.5329 -75.3050 209° Southwest 332 382 15,700 2,520 Climbing FlightAware ADS-B
06:12AM 39.5103 -75.3192 206° Southwest 333 383 16,500 2,880 Climbing FlightAware ADS-B
06:13AM 39.4956 -75.3265 201° Southwest 333 383 17,000 3,300 Climbing FlightAware ADS-B
06:13AM 39.4838 -75.3311 197° South 331 381 17,500 3,540 Climbing FlightAware ADS-B
06:13AM 39.4553 -75.3401 194° South 325 374 18,600 2,700 Climbing FlightAware ADS-B
06:13AM 39.4326 -75.3457 191° South 332 382 19,100 1,800 Climbing FlightAware ADS-B
06:14AM 39.3965 -75.3518 187° South 344 396 19,800 2,100 Climbing FlightAware ADS-B
06:14AM 39.3478 -75.3580 186° South 347 399 21,000 2,040 Climbing FlightAware ADS-B
06:15AM 39.2981 -75.3651 186° South 358 412 21,900 2,100 Climbing FlightAware ADS-B
06:15AM 39.2643 -75.3701 187° South 357 411 22,800 1,980 Climbing FlightAware ADS-B
06:16AM 39.2112 -75.3800 188° South 364 419 23,700 1,680 Climbing FlightAware ADS-B
06:16AM 39.1603 -75.3885 187° South 369 425 24,600 1,860 Climbing FlightAware ADS-B
06:17AM 39.1084 -75.3969 187° South 373 429 25,600 1,740 Climbing FlightAware ADS-B
06:17AM 39.0532 -75.4048 186° South 377 434 26,400 1,200 Climbing FlightAware ADS-B
06:18AM 38.9995 -75.4121 186° South 384 442 26,900 720 Climbing FlightAware ADS-B
06:18AM 38.9450 -75.4194 186° South 385 443 27,200 780 Climbing FlightAware ADS-B
06:19AM 38.9094 -75.4257 188° South 386 444 27,600 960 Climbing FlightAware ADS-B
06:19AM 38.8812 -75.4331 192° South 388 447 27,800 720 Climbing FlightAware ADS-B
06:19AM 38.8521 -75.4451 198° South 387 445 28,000 540 Climbing FlightAware ADS-B
06:19AM 38.8445 -75.4492 203° Southwest 387 445 28,000  Level FlightAware ADS-B
06:20AM 38.7962 -75.4796 206° Southwest 385 443 28,000 60 Level FlightAware ADS-B
06:20AM 38.7539 -75.5081 208° Southwest 385 443 28,100  Climbing FlightAware ADS-B
06:21AM 38.7067 -75.5425 210° Southwest 387 445 28,000 -120 Descending FlightAware ADS-B
06:21AM 38.6583 -75.5754 208° Southwest 388 447 28,000  Level FlightAware ADS-B
06:22AM 38.6094 -75.6070 207° Southwest 389 448 28,000  Level FlightAware ADS-B
06:22AM 38.5600 -75.6376 206° Southwest 389 448 28,000  Level FlightAware ADS-B
06:23AM 38.5110 -75.6682 206° Southwest 390 449 28,000  Level FlightAware ADS-B
06:23AM 38.4616 -75.6993 206° Southwest 391 450 28,000  Level FlightAware ADS-B
06:24AM 38.4120 -75.7304 206° Southwest 391 450 28,000  Level FlightAware ADS-B
06:24AM 38.3596 -75.7633 206° Southwest 390 449 28,000 540 Level FlightAware ADS-B
06:25AM 38.2738 -75.8171 206° Southwest 390 449 28,800 960 Climbing FlightAware ADS-B
06:26AM 38.2241 -75.8482 206° Southwest 390 449 29,400 1,440 Climbing FlightAware ADS-B
06:26AM 38.1749 -75.8790 206° Southwest 387 445 30,300 1,560 Climbing FlightAware ADS-B
06:27AM 38.1256 -75.9096 206° Southwest 388 447 31,000 1,260 Climbing FlightAware ADS-B
06:27AM 38.0758 -75.9407 206° Southwest 391 450 31,600 1,080 Climbing FlightAware ADS-B
06:28AM 38.0261 -75.9716 206° Southwest 398 458 32,100 1,080 Climbing FlightAware ADS-B
06:28AM 37.9760 -76.0027 206° Southwest 401 461 32,700 1,080 Climbing FlightAware ADS-B
06:29AM 37.9260 -76.0336 206° Southwest 399 459 33,200 840 Climbing FlightAware ADS-B
06:29AM 37.8749 -76.0653 206° Southwest 394 453 33,600 540 Climbing FlightAware ADS-B
06:30AM 37.8253 -76.0960 206° Southwest 397 457 33,800 360 Climbing FlightAware ADS-B
06:30AM 37.7713 -76.1294 206° Southwest 394 453 34,000 120 Climbing FlightAware ADS-B
06:31AM 37.6940 -76.1770 206° Southwest 393 452 34,000  Level FlightAware
06:32AM 37.6310 -76.2150 206° Southwest 391 450 34,000  Level FlightAware
06:32AM 37.5909 -76.2401 206° Southwest 393 452 34,000  Level FlightAware ADS-B
06:33AM 37.5401 -76.2712 206° Southwest 393 452 34,000  Level FlightAware ADS-B
06:33AM 37.4881 -76.3032 206° Southwest 392 451 34,000  Level FlightAware ADS-B
06:34AM 37.4344 -76.3361 206° Southwest 392 451 34,000  Level FlightAware ADS-B
06:34AM 37.3812 -76.3685 206° Southwest 391 450 34,000  Level FlightAware ADS-B
06:35AM 37.3304 -76.3994 206° Southwest 392 451 34,000  Level FlightAware ADS-B
06:35AM 37.2769 -76.4318 206° Southwest 393 452 34,000  Level FlightAware ADS-B
06:36AM 37.2273 -76.4619 206° Southwest 394 453 34,000  Level FlightAware ADS-B
06:37AM 37.1360 -76.5170 206° Southwest 395 455 34,000  Level FlightAware
06:37AM 37.0941 -76.5427 206° Southwest 395 455 34,000  Level FlightAware ADS-B
06:38AM 36.9990 -76.6000 206° Southwest 394 453 34,000  Level FlightAware
06:39AM 36.9350 -76.6380 205° Southwest 396 456 34,000  Level FlightAware
06:39AM 36.8630 -76.6820 206° Southwest 397 457 34,000  Level FlightAware
06:40AM 36.7950 -76.7230 206° Southwest 398 458 34,000  Level FlightAware
06:41AM 36.7310 -76.7610 205° Southwest 399 459 34,000  Level FlightAware
06:41AM 36.6560 -76.8050 205° Southwest 400 460 34,000  Level FlightAware
06:42AM 36.6040 -76.8360 206° Southwest 400 460 34,000  Level FlightAware
06:43AM 36.5350 -76.8760 205° Southwest 400 460 34,000  Level FlightAware
06:49AM 35.8750 -77.2670 206° Southwest 405 466 34,000  Level FlightAware
06:50AM 35.8090 -77.3050 205° Southwest 406 467 34,000  Level FlightAware
06:51AM 35.7490 -77.3400 205° Southwest 406 467 34,000  Level FlightAware
06:51AM 35.6960 -77.3930 219° Southwest 408 470 34,000  Level FlightAware
06:52AM 35.6470 -77.4420 219° Southwest 408 470 34,000  Level FlightAware
06:53AM 35.5870 -77.5010 219° Southwest 408 470 34,000  Level FlightAware
06:53AM 35.5420 -77.5460 219° Southwest 408 470 34,000  Level FlightAware
06:54AM 35.4820 -77.6060 219° Southwest 408 470 34,000  Level FlightAware
06:55AM 35.4370 -77.6500 219° Southwest 408 470 34,000  Level FlightAware
06:55AM 35.3930 -77.6950 220° Southwest 408 470 34,000  Level FlightAware
06:56AM 35.3330 -77.7540 219° Southwest 408 470 34,000  Level FlightAware
06:56AM 35.2900 -77.7960 219° Southwest 408 470 34,000  Level FlightAware
06:57AM 35.2300 -77.8560 219° Southwest 408 470 34,000  Level FlightAware
06:58AM 35.1860 -77.9000 219° Southwest 408 470 34,000  Level FlightAware
06:59AM 35.1260 -77.9590 219° Southwest 408 470 34,000  Level FlightAware
06:59AM 35.0810 -78.0040 219° Southwest 408 470 34,000  Level FlightAware
07:00AM 34.8960 -78.1720 217° Southwest 412 474 34,000  Level FlightAware
07:01AM 34.8190 -78.2460 218° Southwest 415 478 34,000  Level FlightAware
07:02AM 34.7500 -78.3130 219° Southwest 417 480 34,000  Level FlightAware
07:03AM 34.6700 -78.3890 218° Southwest 417 480 34,000  Level FlightAware
07:03AM 34.6220 -78.4340 218° Southwest 417 480 34,000  Level FlightAware
07:04AM 34.5600 -78.4930 218° Southwest 417 480 34,000  Level FlightAware
07:05AM 34.5130 -78.5370 218° Southwest 417 480 34,000  Level FlightAware
07:06AM 34.4150 -78.6460 223° Southwest 419 482 34,000  Level FlightAware
07:06AM 34.3370 -78.7380 224° Southwest 420 483 34,000  Level FlightAware
07:07AM 34.3260 -78.7510 224° Southwest 421 484 34,000  Level FlightAware
07:08AM 34.1920 -78.9040 223° Southwest 419 482 34,000  Level FlightAware
07:09AM 34.1400 -78.9590 221° Southwest 418 481 34,000  Level FlightAware
07:09AM 34.0710 -79.0250 218° Southwest 417 480 34,000  Level FlightAware
07:10AM 34.0020 -79.0880 217° Southwest 417 480 34,000  Level FlightAware
07:11AM 33.9430 -79.1390 216° Southwest 417 480 34,000  Level FlightAware
07:12AM 33.8770 -79.1960 216° Southwest 415 478 34,000  Level FlightAware
07:12AM 33.8130 -79.2500 215° Southwest 415 478 34,000  Level FlightAware
07:13AM 33.7500 -79.3030 215° Southwest 415 478 34,000  Level FlightAware
07:14AM 33.6870 -79.3480 211° Southwest 416 479 34,000  Level FlightAware
07:14AM 33.6260 -79.3860 207° Southwest 417 480 34,000  Level FlightAware
07:15AM 33.5460 -79.4270 203° Southwest 418 481 34,000  Level FlightAware
07:16AM 33.4700 -79.4590 199° South 418 481 34,000  Level FlightAware
07:16AM 33.3880 -79.4930 199° South 420 483 34,000  Level FlightAware
07:17AM 33.3160 -79.5230 199° South 421 484 34,000  Level FlightAware
07:18AM 33.2320 -79.5570 199° South 420 483 34,000  Level FlightAware
07:18AM 33.1580 -79.5880 199° South 421 484 34,000  Level FlightAware
07:19AM 33.0850 -79.6180 199° South 421 484 34,000  Level FlightAware
07:20AM 33.0130 -79.6480 199° South 421 484 34,000  Level FlightAware
07:20AM 32.9310 -79.6820 199° South 422 486 34,000  Level FlightAware
07:21AM 32.8560 -79.7120 199° South 423 487 34,000  Level FlightAware
07:22AM 32.7700 -79.7480 199° South 422 486 34,000  Level FlightAware
07:23AM 32.6960 -79.7780 199° South 423 487 34,000  Level FlightAware
07:23AM 32.6240 -79.8070 199° South 424 488 34,000  Level FlightAware
07:24AM 32.5380 -79.8420 199° South 425 489 34,000  Level FlightAware
07:25AM 32.4660 -79.8720 199° South 425 489 34,000  Level FlightAware
07:25AM 32.3800 -79.9060 198° South 426 490 34,000  Level FlightAware
07:26AM 32.3270 -79.9280 199° South 426 490 34,000  Level FlightAware
07:27AM 32.2410 -79.9630 199° South 426 490 34,000  Level FlightAware
07:28AM 32.1440 -80.0020 199° South 427 491 34,000  Level FlightAware
07:28AM 32.0770 -80.0290 199° South 428 493 34,000  Level FlightAware
07:29AM 31.9890 -80.0650 199° South 428 493 34,000  Level FlightAware
07:30AM 31.9130 -80.0950 199° South 428 493 34,000  Level FlightAware
07:30AM 31.8290 -80.1290 199° South 428 493 34,000  Level FlightAware
07:31AM 31.7070 -80.1770 199° South 429 494 34,000  Level FlightAware
07:32AM 31.6250 -80.2100 199° South 429 494 34,000  Level FlightAware
07:33AM 31.6120 -80.2150 198° South 429 494 34,000  Level FlightAware
07:33AM 31.5490 -80.2390 198° South 429 494 34,000  Level FlightAware
07:34AM 31.4030 -80.2990 199° South 34,000  Level FlightAware
07:35AM 31.3500 -80.3190 198° South 429 494 34,000  Level FlightAware
07:35AM 31.2930 -80.3410 198° South 429 494 34,000  Level FlightAware
07:36AM 31.2160 -80.3700 198° South 429 494 34,000  Level FlightAware
07:37AM 31.1580 -80.3920 198° South 429 494 34,000  Level FlightAware
07:38AM 31.0810 -80.4210 198° South 429 494 34,000  Level FlightAware
07:38AM 31.0230 -80.4430 198° South 429 494 34,000  Level FlightAware
07:39AM 30.9460 -80.4720 198° South 429 494 34,000  Level FlightAware
07:40AM 30.8880 -80.4940 198° South 429 494 34,000  Level FlightAware
07:40AM 30.8310 -80.5160 198° South 429 494 34,000  Level FlightAware
07:41AM 30.7530 -80.5450 198° South 429 494 34,000  Level FlightAware
07:42AM 30.6940 -80.5680 199° South 429 494 34,000  Level FlightAware
07:42AM 30.6360 -80.5890 197° South 429 494 34,000  Level FlightAware
07:43AM 30.5400 -80.6260 198° South 429 494 34,000  Level FlightAware
07:44AM 30.2870 -80.5580 167° South 34,000  Level FlightAware
07:44AM 30.2111 -80.5708 167° South 429 494 34,000 -120 Level Miami Center
07:45AM 30.0939 -80.5858 186° South 435 501 33,900  Descending Miami Center
07:46AM 29.9725 -80.6056 188° South 435 501 34,000  Climbing Miami Center
07:47AM 29.8511 -80.6206 186° South 435 501 34,000  Level Miami Center
07:53AM 29.1490 -80.7240 186° South 428 493 34,000  Level FlightAware
07:54AM 29.0840 -80.7330 187° South 428 493 34,000  Level FlightAware
07:54AM 29.0060 -80.7450 188° South 428 493 34,000  Level FlightAware
07:55AM 28.9200 -80.7570 187° South 428 493 34,000  Level FlightAware
07:56AM 28.7640 -80.7800 187° South 432 497 34,000  Level FlightAware
07:57AM 28.6830 -80.7910 187° South 436 502 34,000  Level FlightAware
07:58AM 28.6030 -80.8030 188° South 436 502 34,000  Level FlightAware
07:58AM 28.5150 -80.7970 177° South 441 507 34,000  Level FlightAware
07:59AM 28.4370 -80.7670 161° South 444 511 34,000  Level FlightAware
08:00AM 28.4130 -80.7570 160° South 445 512 34,000  Level FlightAware
08:01AM 28.2490 -80.6920 161° South 445 512 34,000  Level FlightAware
08:01AM 28.1600 -80.6570 161° South 446 513 34,000 -240 Level FlightAware
08:02AM 28.0740 -80.6240 161° South 443 510 33,700 -360 Descending FlightAware
08:03AM 27.9900 -80.5850 158° South 445 512 33,500 -180 Descending FlightAware
08:04AM 27.9320 -80.5560 156° South 445 512 33,500  Level FlightAware
08:05AM 27.8330 -80.5060 156° South 445 512 33,500  Level FlightAware
08:05AM 27.7760 -80.4770 156° South 445 512 33,500  Level FlightAware
08:06AM 27.6990 -80.4390 156° South 445 512 33,500  Level FlightAware
08:07AM 27.6410 -80.4100 156° South 445 512 33,500  Level FlightAware
08:07AM 27.5650 -80.3710 156° South 445 512 33,500  Level FlightAware
08:08AM 27.5070 -80.3420 156° South 445 512 33,500 -4,680 Level FlightAware
08:08AM 27.3520 -80.3500 183° South 24,100 -6,660 Descending FlightAware
08:09AM 27.2560 -80.3210 165° South 405 466 24,000 -60 Descending FlightAware
08:10AM 27.1640 -80.2910 164° South 405 466 24,000  Level FlightAware
08:11AM 27.1080 -80.2730 164° South 405 466 24,000 -3,180 Level FlightAware
08:12AM 27.0120 -80.2200 154° Southeast 373 429 20,000 -3,180 Descending FlightAware
08:12AM 26.9610 -80.1990 160° South 373 429 20,000 -1,620 Level FlightAware
08:13AM 26.8800 -80.1670 161° South 339 390 17,800 -2,280 Descending FlightAware
08:14AM 26.8190 -80.1420 160° South 341 392 16,800 -1,500 Descending FlightAware
08:14AM 26.7580 -80.1180 161° South 330 380 15,800 -1,440 Descending FlightAware
08:15AM 26.7030 -80.0960 160° South 326 375 14,900 -1,380 Descending FlightAware
08:16AM 26.6300 -80.0780 168° South 326 375 13,900 -1,140 Descending FlightAware
08:17AM 26.5680 -80.0670 171° South 323 372 13,300 -720 Descending FlightAware
08:17AM 26.5140 -80.0580 172° South 323 372 13,000 -360 Descending FlightAware
08:18AM 26.4530 -80.0470 171° South 320 368 12,900 -480 Descending FlightAware
08:19AM 26.3910 -80.0370 172° South 321 369 12,400 -960 Descending FlightAware
08:19AM 26.3380 -80.0270 170° South 320 368 11,700 -840 Descending FlightAware
08:20AM 26.3030 -80.0210 171° South 318 366 11,400 -600 Descending FlightAware
08:21AM 26.2110 -80.0250 182° South 323 372 10,900 -420 Descending FlightAware
08:21AM 26.1640 -80.0380 194° South 318 366 10,900 -180 Level FlightAware
08:22AM 26.1040 -80.0550 194° South 286 329 10,700 -600 Descending FlightAware
08:23AM 26.0640 -80.0670 195° South 279 321 10,100 -1,200 Descending FlightAware
08:23AM 26.0140 -80.0810 194° South 271 312 9,300 -1,080 Descending FlightAware
08:24AM 25.9820 -80.0900 194° South 258 297 9,100 -660 Descending FlightAware
08:24AM 25.9550 -80.1090 212° Southwest 244 281 8,700 -780 Descending FlightAware
08:24AM 25.9390 -80.1370 238° Southwest 240 276 8,400 -660 Descending FlightAware
08:25AM 25.9220 -80.1680 239° Southwest 233 268 8,100 -660 Descending FlightAware
08:25AM 25.9150 -80.1850 245° Southwest 224 258 7,900 -300 Descending FlightAware
08:26AM 25.9060 -80.2120 250° West 210 242 7,900 -360 Level FlightAware
08:26AM 25.8960 -80.2410 249° West 205 236 7,600 -1,020 Descending FlightAware
08:27AM 25.8900 -80.2660 255° West 204 235 7,000 -1,260 Descending FlightAware
08:27AM 25.8980 -80.2890 291° West 205 236 6,600 -1,080 Descending FlightAware
08:27AM 25.9040 -80.3050 293° West 203 234 6,300 -1,140 Descending FlightAware
08:28AM 25.9160 -80.3310 297° West 198 228 5,800 -1,140 Descending FlightAware
08:28AM 25.9260 -80.3530 297° West 199 229 5,300 -1,020 Descending FlightAware
08:29AM 25.9400 -80.3800 300° West 198 228 4,900 -960 Descending FlightAware
08:29AM 25.9490 -80.3980 299° West 193 222 4,500 -1,080 Descending FlightAware
08:29AM 25.9500 -80.4120 275° West 195 224 4,300 -960 Descending FlightAware
08:30AM 25.9470 -80.4420 264° West 188 216 3,800 -1,080 Descending FlightAware
08:30AM 25.9400 -80.4540 237° Southwest 180 207 3,500 -1,020 Descending FlightAware
08:30AM 25.9300 -80.4640 222° Southwest 188 216 3,300 -600 Descending FlightAware
08:31AM 25.8990 -80.4630 178° South 175 201 3,000 -420 Descending FlightAware
08:31AM 25.8820 -80.4490 143° Southeast 175 201 2,900 -660 Descending FlightAware
08:32AM 25.8650 -80.4300 135° Southeast 185 213 2,400 -1,080 Descending FlightAware
08:32AM 25.8600 -80.4210 122° Southeast 185 213 2,200 -1,200 Descending FlightAware
08:32AM 25.8550 -80.4120 122° Southeast 181 208 2,000 -900 Descending FlightAware
08:33AM 25.8430 -80.3870 118° Southeast 171 197 1,600 -960 Descending FlightAware
08:33AM 25.8320 -80.3660 120° Southeast 151 174 1,100 -900 Descending FlightAware
08:34AM 25.8200 -80.3420 119° Southeast 148 170 700 -780 Descending FlightAware
08:34AM 25.8100 -80.3230 120° Southeast 146 168 300 -840 Descending FlightAware
08:35AM 25.8010 -80.3060 120° Southeast 151 174 -840 Descending FlightAware
08:35AM 25.7920 -80.2880 119° Southeast 96 110  Level FlightAware
08:36AM 25.7900 -80.2830 114° Southeast 23 26  Level FlightAware
08:36AM 25.7900 -80.2820 90° East 23 26  Level FlightAware
08:36AM 25.7910 -80.2820 360° North 25 29  Level FlightAware
08:37AM 25.7920 -80.2840 299° West 27 31  Level FlightAware
08:37AM 25.7930 -80.2850 318° Northwest 30 35  Level FlightAware
08:38AM 25.7940 -80.2870 299° West 25 29  Level FlightAware
08:39AM 25.7950 -80.2880 318° Northwest 27 31  Level FlightAware
08:39AM 25.7960 -80.2880 360° North 29 33  Level FlightAware
08:39AM 25.7980 -80.2880 360° North 31 36  Level FlightAware
08:40AM 25.8020 -80.2880 360° North 28 32  Level FlightAware
08:41AM 25.7990 -80.2860 149° Southeast 28 32  Level FlightAware
08:41AM 25.7990 -80.2850 90° East 30 35  Level FlightAware
08:41AM 25.8000 -80.2830 61° Northeast 32 37  Level FlightAware
08:42AM 25.8000 -80.2800 90° East 28 32  Level FlightAware
08:43AM 25.8000 -80.2760 90° East 28 32  Level FlightAware
08:43AM 25.8000 -80.2770 270° West 28 32  Level FlightAware
08:44AM 25.8000 -80.2750 90° East 27 31  Level FlightAware
08:44AM 25.8000 -80.2730 90° East 25 29  Level FlightAware